sensor_id;sensor_type;location;lat;lon;timestamp;P1;durP1;ratioP1;P2;durP2;ratioP2
56373;SDS011;58212;47.034;7.376;2022-09-13T00:01:44;2.83;;;1.58;;
56373;SDS011;58212;47.034;7.376;2022-09-13T00:04:11;2.15;;;1.50;;
56373;SDS011;58212;47.034;7.376;2022-09-13T00:06:38;4.10;;;1.40;;
56373;SDS011;58212;47.034;7.376;2022-09-13T00:09:06;2.65;;;1.50;;
56373;SDS011;58212;47.034;7.376;2022-09-13T00:11:33;2.42;;;1.45;;
56373;SDS011;58212;47.034;7.376;2022-09-13T00:14:01;3.25;;;1.67;;
56373;SDS011;58212;47.034;7.376;2022-09-13T00:16:28;2.30;;;1.48;;
56373;SDS011;58212;47.034;7.376;2022-09-13T00:18:56;4.07;;;1.73;;
56373;SDS011;58212;47.034;7.376;2022-09-13T00:21:25;4.40;;;1.58;;
56373;SDS011;58212;47.034;7.376;2022-09-13T00:23:52;1.60;;;1.40;;
56373;SDS011;58212;47.034;7.376;2022-09-13T00:26:21;2.15;;;1.20;;
56373;SDS011;58212;47.034;7.376;2022-09-13T00:28:49;4.35;;;1.60;;
56373;SDS011;58212;47.034;7.376;2022-09-13T00:31:20;1.48;;;1.38;;
56373;SDS011;58212;47.034;7.376;2022-09-13T00:33:48;1.98;;;1.40;;
56373;SDS011;58212;47.034;7.376;2022-09-13T00:36:16;2.42;;;1.50;;
56373;SDS011;58212;47.034;7.376;2022-09-13T00:38:43;5.50;;;1.83;;
56373;SDS011;58212;47.034;7.376;2022-09-13T00:41:12;2.95;;;1.50;;
56373;SDS011;58212;47.034;7.376;2022-09-13T00:43:45;2.75;;;1.83;;
56373;SDS011;58212;47.034;7.376;2022-09-13T00:46:16;5.60;;;1.60;;
56373;SDS011;58212;47.034;7.376;2022-09-13T00:48:48;2.50;;;1.40;;
56373;SDS011;58212;47.034;7.376;2022-09-13T00:51:19;3.10;;;1.50;;
56373;SDS011;58212;47.034;7.376;2022-09-13T00:53:47;3.88;;;1.40;;
56373;SDS011;58212;47.034;7.376;2022-09-13T00:56:20;5.85;;;1.52;;
56373;SDS011;58212;47.034;7.376;2022-09-13T00:58:51;6.38;;;1.80;;
56373;SDS011;58212;47.034;7.376;2022-09-13T01:01:27;2.55;;;1.30;;
56373;SDS011;58212;47.034;7.376;2022-09-13T01:03:58;1.67;;;1.42;;
56373;SDS011;58212;47.034;7.376;2022-09-13T01:06:27;3.55;;;1.60;;
56373;SDS011;58212;47.034;7.376;2022-09-13T01:08:57;2.15;;;1.60;;
56373;SDS011;58212;47.034;7.376;2022-09-13T01:11:29;2.13;;;1.30;;
56373;SDS011;58212;47.034;7.376;2022-09-13T01:14:03;1.98;;;1.42;;
56373;SDS011;58212;47.034;7.376;2022-09-13T01:16:33;3.40;;;1.52;;
56373;SDS011;58212;47.034;7.376;2022-09-13T01:19:00;4.00;;;1.70;;
56373;SDS011;58212;47.034;7.376;2022-09-13T01:21:36;2.50;;;1.60;;
56373;SDS011;58212;47.034;7.376;2022-09-13T01:30:34;3.53;;;1.63;;
56373;SDS011;58212;47.034;7.376;2022-09-13T01:36:19;3.20;;;1.90;;
56373;SDS011;58212;47.034;7.376;2022-09-13T01:39:03;3.42;;;1.73;;
56373;SDS011;58212;47.034;7.376;2022-09-13T01:41:36;2.58;;;1.60;;
56373;SDS011;58212;47.034;7.376;2022-09-13T01:44:17;3.97;;;1.70;;
56373;SDS011;58212;47.034;7.376;2022-09-13T01:46:54;2.55;;;1.88;;
56373;SDS011;58212;47.034;7.376;2022-09-13T01:49:29;2.33;;;2.13;;
56373;SDS011;58212;47.034;7.376;2022-09-13T01:52:06;2.10;;;1.90;;
56373;SDS011;58212;47.034;7.376;2022-09-13T01:54:44;3.47;;;1.80;;
56373;SDS011;58212;47.034;7.376;2022-09-13T01:57:21;3.28;;;1.95;;
56373;SDS011;58212;47.034;7.376;2022-09-13T01:59:59;3.45;;;1.92;;
56373;SDS011;58212;47.034;7.376;2022-09-13T02:05:45;3.38;;;1.80;;
56373;SDS011;58212;47.034;7.376;2022-09-13T02:08:18;2.08;;;1.88;;
56373;SDS011;58212;47.034;7.376;2022-09-13T02:10:50;1.85;;;1.67;;
56373;SDS011;58212;47.034;7.376;2022-09-13T02:13:25;3.08;;;1.75;;
56373;SDS011;58212;47.034;7.376;2022-09-13T02:15:58;3.20;;;1.60;;
56373;SDS011;58212;47.034;7.376;2022-09-13T02:18:29;4.32;;;1.70;;
56373;SDS011;58212;47.034;7.376;2022-09-13T02:21:05;3.55;;;1.58;;
56373;SDS011;58212;47.034;7.376;2022-09-13T02:26:15;3.95;;;1.70;;
56373;SDS011;58212;47.034;7.376;2022-09-13T02:28:47;3.92;;;1.45;;
56373;SDS011;58212;47.034;7.376;2022-09-13T02:31:17;2.30;;;1.48;;
56373;SDS011;58212;47.034;7.376;2022-09-13T02:33:53;1.50;;;1.30;;
56373;SDS011;58212;47.034;7.376;2022-09-13T02:36:25;2.45;;;1.52;;
56373;SDS011;58212;47.034;7.376;2022-09-13T02:38:55;2.92;;;1.35;;
56373;SDS011;58212;47.034;7.376;2022-09-13T02:41:27;4.00;;;1.50;;
56373;SDS011;58212;47.034;7.376;2022-09-13T02:44:04;2.65;;;1.48;;
56373;SDS011;58212;47.034;7.376;2022-09-13T02:46:40;1.63;;;1.40;;
56373;SDS011;58212;47.034;7.376;2022-09-13T02:49:25;3.75;;;1.38;;
56373;SDS011;58212;47.034;7.376;2022-09-13T02:51:58;2.45;;;1.15;;
56373;SDS011;58212;47.034;7.376;2022-09-13T02:54:35;3.45;;;1.50;;
56373;SDS011;58212;47.034;7.376;2022-09-13T02:57:10;3.10;;;1.67;;
56373;SDS011;58212;47.034;7.376;2022-09-13T02:59:42;4.07;;;1.33;;
56373;SDS011;58212;47.034;7.376;2022-09-13T03:02:12;2.35;;;1.67;;
56373;SDS011;58212;47.034;7.376;2022-09-13T03:04:42;2.63;;;1.50;;
56373;SDS011;58212;47.034;7.376;2022-09-13T03:07:13;4.15;;;1.58;;
56373;SDS011;58212;47.034;7.376;2022-09-13T03:09:41;3.83;;;1.70;;
56373;SDS011;58212;47.034;7.376;2022-09-13T03:12:16;2.92;;;1.40;;
56373;SDS011;58212;47.034;7.376;2022-09-13T03:15:00;4.30;;;1.58;;
56373;SDS011;58212;47.034;7.376;2022-09-13T03:17:43;2.17;;;1.85;;
56373;SDS011;58212;47.034;7.376;2022-09-13T03:20:21;2.63;;;2.00;;
56373;SDS011;58212;47.034;7.376;2022-09-13T03:23:05;1.70;;;1.50;;
56373;SDS011;58212;47.034;7.376;2022-09-13T03:25:58;2.00;;;1.70;;
56373;SDS011;58212;47.034;7.376;2022-09-13T03:28:53;3.65;;;1.88;;
56373;SDS011;58212;47.034;7.376;2022-09-13T03:31:31;2.78;;;1.50;;
56373;SDS011;58212;47.034;7.376;2022-09-13T03:34:03;1.98;;;1.30;;
56373;SDS011;58212;47.034;7.376;2022-09-13T03:36:35;2.10;;;1.48;;
56373;SDS011;58212;47.034;7.376;2022-09-13T03:39:08;3.45;;;1.60;;
56373;SDS011;58212;47.034;7.376;2022-09-13T03:41:43;2.97;;;1.40;;
56373;SDS011;58212;47.034;7.376;2022-09-13T03:47:03;1.80;;;1.70;;
56373;SDS011;58212;47.034;7.376;2022-09-13T03:49:33;2.80;;;1.30;;
56373;SDS011;58212;47.034;7.376;2022-09-13T03:52:04;3.90;;;1.75;;
56373;SDS011;58212;47.034;7.376;2022-09-13T03:54:35;1.65;;;1.40;;
56373;SDS011;58212;47.034;7.376;2022-09-13T03:57:07;2.40;;;1.38;;
56373;SDS011;58212;47.034;7.376;2022-09-13T03:59:36;4.82;;;1.30;;
56373;SDS011;58212;47.034;7.376;2022-09-13T04:02:05;4.35;;;1.48;;
56373;SDS011;58212;47.034;7.376;2022-09-13T04:04:38;2.65;;;1.70;;
56373;SDS011;58212;47.034;7.376;2022-09-13T04:07:09;2.20;;;1.30;;
56373;SDS011;58212;47.034;7.376;2022-09-13T04:09:39;4.70;;;1.50;;
56373;SDS011;58212;47.034;7.376;2022-09-13T04:12:06;2.38;;;1.30;;
56373;SDS011;58212;47.034;7.376;2022-09-13T04:14:34;2.28;;;1.00;;
56373;SDS011;58212;47.034;7.376;2022-09-13T04:17:01;1.98;;;1.13;;
56373;SDS011;58212;47.034;7.376;2022-09-13T04:19:29;4.30;;;1.17;;
56373;SDS011;58212;47.034;7.376;2022-09-13T04:21:56;3.13;;;1.30;;
56373;SDS011;58212;47.034;7.376;2022-09-13T04:24:24;3.38;;;1.10;;
56373;SDS011;58212;47.034;7.376;2022-09-13T04:26:54;1.92;;;1.02;;
56373;SDS011;58212;47.034;7.376;2022-09-13T04:29:24;4.05;;;1.33;;
56373;SDS011;58212;47.034;7.376;2022-09-13T04:31:52;2.70;;;1.20;;
56373;SDS011;58212;47.034;7.376;2022-09-13T04:34:20;3.03;;;1.30;;
56373;SDS011;58212;47.034;7.376;2022-09-13T04:36:50;1.67;;;0.98;;
56373;SDS011;58212;47.034;7.376;2022-09-13T04:39:21;4.25;;;1.10;;
56373;SDS011;58212;47.034;7.376;2022-09-13T04:41:50;1.55;;;1.00;;
56373;SDS011;58212;47.034;7.376;2022-09-13T04:44:20;5.10;;;1.20;;
56373;SDS011;58212;47.034;7.376;2022-09-13T04:46:50;2.70;;;1.10;;
56373;SDS011;58212;47.034;7.376;2022-09-13T04:49:17;2.25;;;0.90;;
56373;SDS011;58212;47.034;7.376;2022-09-13T04:51:46;2.28;;;1.02;;
56373;SDS011;58212;47.034;7.376;2022-09-13T04:54:13;3.33;;;1.10;;
56373;SDS011;58212;47.034;7.376;2022-09-13T04:56:41;2.55;;;1.00;;
56373;SDS011;58212;47.034;7.376;2022-09-13T04:59:09;2.40;;;0.90;;
56373;SDS011;58212;47.034;7.376;2022-09-13T05:01:38;1.98;;;1.25;;
56373;SDS011;58212;47.034;7.376;2022-09-13T05:04:05;4.35;;;1.13;;
56373;SDS011;58212;47.034;7.376;2022-09-13T05:06:33;3.10;;;1.15;;
56373;SDS011;58212;47.034;7.376;2022-09-13T05:09:00;4.68;;;1.08;;
56373;SDS011;58212;47.034;7.376;2022-09-13T05:11:29;2.05;;;1.10;;
56373;SDS011;58212;47.034;7.376;2022-09-13T05:13:57;6.07;;;1.10;;
56373;SDS011;58212;47.034;7.376;2022-09-13T05:16:25;4.00;;;1.20;;
56373;SDS011;58212;47.034;7.376;2022-09-13T05:18:56;3.22;;;1.27;;
56373;SDS011;58212;47.034;7.376;2022-09-13T05:21:23;1.13;;;1.05;;
56373;SDS011;58212;47.034;7.376;2022-09-13T05:23:52;3.80;;;1.30;;
56373;SDS011;58212;47.034;7.376;2022-09-13T05:26:20;3.20;;;0.90;;
56373;SDS011;58212;47.034;7.376;2022-09-13T05:28:48;2.72;;;1.10;;
56373;SDS011;58212;47.034;7.376;2022-09-13T05:31:16;3.72;;;1.20;;
56373;SDS011;58212;47.034;7.376;2022-09-13T05:33:45;2.92;;;1.00;;
56373;SDS011;58212;47.034;7.376;2022-09-13T05:36:14;2.35;;;0.95;;
56373;SDS011;58212;47.034;7.376;2022-09-13T05:38:41;3.05;;;1.08;;
56373;SDS011;58212;47.034;7.376;2022-09-13T05:41:09;1.65;;;0.93;;
56373;SDS011;58212;47.034;7.376;2022-09-13T05:43:36;2.50;;;1.00;;
56373;SDS011;58212;47.034;7.376;2022-09-13T05:46:03;1.13;;;0.70;;
56373;SDS011;58212;47.034;7.376;2022-09-13T05:48:32;2.95;;;0.95;;
56373;SDS011;58212;47.034;7.376;2022-09-13T05:51:03;1.83;;;0.82;;
56373;SDS011;58212;47.034;7.376;2022-09-13T05:53:33;1.35;;;1.08;;
56373;SDS011;58212;47.034;7.376;2022-09-13T05:56:04;2.92;;;0.93;;
56373;SDS011;58212;47.034;7.376;2022-09-13T05:58:37;1.25;;;0.68;;
56373;SDS011;58212;47.034;7.376;2022-09-13T06:01:05;2.90;;;1.50;;
56373;SDS011;58212;47.034;7.376;2022-09-13T06:03:32;1.58;;;0.90;;
56373;SDS011;58212;47.034;7.376;2022-09-13T06:06:00;1.40;;;0.93;;
56373;SDS011;58212;47.034;7.376;2022-09-13T06:08:28;3.08;;;1.00;;
56373;SDS011;58212;47.034;7.376;2022-09-13T06:10:58;1.70;;;0.90;;
56373;SDS011;58212;47.034;7.376;2022-09-13T06:13:27;2.97;;;1.40;;
56373;SDS011;58212;47.034;7.376;2022-09-13T06:15:56;6.30;;;1.92;;
56373;SDS011;58212;47.034;7.376;2022-09-13T06:18:24;2.72;;;1.13;;
56373;SDS011;58212;47.034;7.376;2022-09-13T06:20:56;2.88;;;1.00;;
56373;SDS011;58212;47.034;7.376;2022-09-13T06:23:24;2.75;;;0.90;;
56373;SDS011;58212;47.034;7.376;2022-09-13T06:26:01;2.50;;;0.90;;
56373;SDS011;58212;47.034;7.376;2022-09-13T06:28:30;4.47;;;1.77;;
56373;SDS011;58212;47.034;7.376;2022-09-13T06:31:00;2.47;;;1.40;;
56373;SDS011;58212;47.034;7.376;2022-09-13T06:33:28;3.00;;;0.93;;
56373;SDS011;58212;47.034;7.376;2022-09-13T06:35:58;4.57;;;1.20;;
56373;SDS011;58212;47.034;7.376;2022-09-13T06:38:26;2.50;;;0.90;;
56373;SDS011;58212;47.034;7.376;2022-09-13T06:41:00;6.15;;;2.30;;
56373;SDS011;58212;47.034;7.376;2022-09-13T06:43:29;4.05;;;1.10;;
56373;SDS011;58212;47.034;7.376;2022-09-13T06:46:00;4.28;;;1.00;;
56373;SDS011;58212;47.034;7.376;2022-09-13T06:48:29;3.45;;;1.00;;
56373;SDS011;58212;47.034;7.376;2022-09-13T06:51:00;3.40;;;0.80;;
56373;SDS011;58212;47.034;7.376;2022-09-13T06:53:32;2.00;;;0.82;;
56373;SDS011;58212;47.034;7.376;2022-09-13T06:56:02;2.17;;;0.90;;
56373;SDS011;58212;47.034;7.376;2022-09-13T06:58:30;3.25;;;1.70;;
56373;SDS011;58212;47.034;7.376;2022-09-13T07:01:04;1.98;;;1.27;;
56373;SDS011;58212;47.034;7.376;2022-09-13T07:03:37;5.03;;;1.70;;
56373;SDS011;58212;47.034;7.376;2022-09-13T07:06:07;3.65;;;1.30;;
56373;SDS011;58212;47.034;7.376;2022-09-13T07:08:38;12.82;;;2.55;;
56373;SDS011;58212;47.034;7.376;2022-09-13T07:11:09;4.20;;;1.50;;
56373;SDS011;58212;47.034;7.376;2022-09-13T07:13:38;3.53;;;1.20;;
56373;SDS011;58212;47.034;7.376;2022-09-13T07:16:08;4.15;;;1.02;;
56373;SDS011;58212;47.034;7.376;2022-09-13T07:18:36;3.15;;;1.17;;
56373;SDS011;58212;47.034;7.376;2022-09-13T07:21:04;4.05;;;1.27;;
56373;SDS011;58212;47.034;7.376;2022-09-13T07:23:33;2.83;;;1.17;;
56373;SDS011;58212;47.034;7.376;2022-09-13T07:26:02;4.50;;;0.98;;
56373;SDS011;58212;47.034;7.376;2022-09-13T07:28:34;1.52;;;0.90;;
56373;SDS011;58212;47.034;7.376;2022-09-13T07:31:05;2.28;;;0.90;;
56373;SDS011;58212;47.034;7.376;2022-09-13T07:33:35;2.17;;;0.90;;
56373;SDS011;58212;47.034;7.376;2022-09-13T07:36:02;1.10;;;0.80;;
56373;SDS011;58212;47.034;7.376;2022-09-13T07:38:32;2.92;;;1.02;;
56373;SDS011;58212;47.034;7.376;2022-09-13T07:41:02;3.20;;;1.00;;
56373;SDS011;58212;47.034;7.376;2022-09-13T07:43:34;2.25;;;0.80;;
56373;SDS011;58212;47.034;7.376;2022-09-13T07:46:03;1.90;;;1.00;;
56373;SDS011;58212;47.034;7.376;2022-09-13T07:48:32;1.60;;;0.85;;
56373;SDS011;58212;47.034;7.376;2022-09-13T07:51:00;2.78;;;1.05;;
56373;SDS011;58212;47.034;7.376;2022-09-13T07:53:29;1.48;;;0.90;;
56373;SDS011;58212;47.034;7.376;2022-09-13T07:56:00;1.88;;;1.52;;
56373;SDS011;58212;47.034;7.376;2022-09-13T07:58:29;3.42;;;1.73;;
56373;SDS011;58212;47.034;7.376;2022-09-13T08:01:00;5.85;;;2.53;;
56373;SDS011;58212;47.034;7.376;2022-09-13T08:03:30;2.50;;;1.73;;
56373;SDS011;58212;47.034;7.376;2022-09-13T08:05:57;2.10;;;1.67;;
56373;SDS011;58212;47.034;7.376;2022-09-13T08:08:25;1.77;;;1.67;;
56373;SDS011;58212;47.034;7.376;2022-09-13T08:10:52;3.63;;;1.70;;
56373;SDS011;58212;47.034;7.376;2022-09-13T08:13:20;2.65;;;1.50;;
56373;SDS011;58212;47.034;7.376;2022-09-13T08:15:49;4.20;;;1.75;;
56373;SDS011;58212;47.034;7.376;2022-09-13T08:18:18;3.67;;;1.67;;
56373;SDS011;58212;47.034;7.376;2022-09-13T08:20:45;4.30;;;1.60;;
56373;SDS011;58212;47.034;7.376;2022-09-13T08:23:12;3.65;;;2.08;;
56373;SDS011;58212;47.034;7.376;2022-09-13T08:25:40;5.80;;;2.40;;
56373;SDS011;58212;47.034;7.376;2022-09-13T08:28:07;3.22;;;2.67;;
56373;SDS011;58212;47.034;7.376;2022-09-13T08:30:35;3.40;;;2.80;;
56373;SDS011;58212;47.034;7.376;2022-09-13T08:33:03;4.28;;;2.50;;
56373;SDS011;58212;47.034;7.376;2022-09-13T08:35:32;6.18;;;2.70;;
56373;SDS011;58212;47.034;7.376;2022-09-13T08:37:59;4.28;;;2.30;;
56373;SDS011;58212;47.034;7.376;2022-09-13T08:40:27;3.97;;;2.42;;
56373;SDS011;58212;47.034;7.376;2022-09-13T08:43:00;2.47;;;2.20;;
56373;SDS011;58212;47.034;7.376;2022-09-13T08:45:34;3.65;;;2.42;;
56373;SDS011;58212;47.034;7.376;2022-09-13T08:48:02;2.95;;;2.53;;
56373;SDS011;58212;47.034;7.376;2022-09-13T08:50:40;5.07;;;2.88;;
56373;SDS011;58212;47.034;7.376;2022-09-13T08:53:13;4.38;;;2.70;;
56373;SDS011;58212;47.034;7.376;2022-09-13T08:55:46;2.72;;;2.47;;
56373;SDS011;58212;47.034;7.376;2022-09-13T08:58:32;3.50;;;2.38;;
56373;SDS011;58212;47.034;7.376;2022-09-13T09:01:11;5.63;;;2.45;;
56373;SDS011;58212;47.034;7.376;2022-09-13T09:03:51;2.45;;;1.90;;
56373;SDS011;58212;47.034;7.376;2022-09-13T09:06:26;3.33;;;2.20;;
56373;SDS011;58212;47.034;7.376;2022-09-13T09:08:56;2.97;;;2.22;;
56373;SDS011;58212;47.034;7.376;2022-09-13T09:11:27;3.13;;;2.40;;
56373;SDS011;58212;47.034;7.376;2022-09-13T09:13:59;3.53;;;2.88;;
56373;SDS011;58212;47.034;7.376;2022-09-13T09:16:35;4.18;;;3.55;;
56373;SDS011;58212;47.034;7.376;2022-09-13T09:19:12;2.97;;;2.72;;
56373;SDS011;58212;47.034;7.376;2022-09-13T09:21:45;4.00;;;2.53;;
56373;SDS011;58212;47.034;7.376;2022-09-13T09:24:15;3.80;;;2.70;;
56373;SDS011;58212;47.034;7.376;2022-09-13T09:26:46;3.03;;;2.65;;
56373;SDS011;58212;47.034;7.376;2022-09-13T09:29:16;3.22;;;2.92;;
56373;SDS011;58212;47.034;7.376;2022-09-13T09:31:47;4.20;;;2.83;;
56373;SDS011;58212;47.034;7.376;2022-09-13T09:34:27;4.93;;;3.22;;
56373;SDS011;58212;47.034;7.376;2022-09-13T09:37:13;3.40;;;2.63;;
56373;SDS011;58212;47.034;7.376;2022-09-13T09:39:46;11.50;;;6.43;;
56373;SDS011;58212;47.034;7.376;2022-09-13T09:42:15;3.30;;;3.00;;
56373;SDS011;58212;47.034;7.376;2022-09-13T09:44:45;8.77;;;3.42;;
56373;SDS011;58212;47.034;7.376;2022-09-13T09:47:17;4.68;;;3.33;;
56373;SDS011;58212;47.034;7.376;2022-09-13T09:49:47;4.45;;;3.25;;
56373;SDS011;58212;47.034;7.376;2022-09-13T09:52:39;4.13;;;3.15;;
56373;SDS011;58212;47.034;7.376;2022-09-13T09:55:16;4.07;;;3.10;;
56373;SDS011;58212;47.034;7.376;2022-09-13T09:57:52;4.25;;;3.08;;
56373;SDS011;58212;47.034;7.376;2022-09-13T10:00:23;5.97;;;3.20;;
56373;SDS011;58212;47.034;7.376;2022-09-13T10:02:54;4.30;;;2.55;;
56373;SDS011;58212;47.034;7.376;2022-09-13T10:05:25;4.03;;;3.08;;
56373;SDS011;58212;47.034;7.376;2022-09-13T10:07:58;3.10;;;2.90;;
56373;SDS011;58212;47.034;7.376;2022-09-13T10:10:37;3.38;;;3.08;;
56373;SDS011;58212;47.034;7.376;2022-09-13T10:13:11;4.10;;;3.40;;
56373;SDS011;58212;47.034;7.376;2022-09-13T10:15:51;3.95;;;2.67;;
56373;SDS011;58212;47.034;7.376;2022-09-13T10:18:20;5.72;;;2.92;;
56373;SDS011;58212;47.034;7.376;2022-09-13T10:20:58;3.92;;;2.50;;
56373;SDS011;58212;47.034;7.376;2022-09-13T10:23:29;3.38;;;2.70;;
56373;SDS011;58212;47.034;7.376;2022-09-13T10:26:01;2.92;;;2.40;;
56373;SDS011;58212;47.034;7.376;2022-09-13T10:28:31;4.57;;;2.80;;
56373;SDS011;58212;47.034;7.376;2022-09-13T10:31:01;10.10;;;6.85;;
56373;SDS011;58212;47.034;7.376;2022-09-13T10:33:32;5.13;;;3.63;;
56373;SDS011;58212;47.034;7.376;2022-09-13T10:36:03;4.43;;;3.20;;
56373;SDS011;58212;47.034;7.376;2022-09-13T10:38:34;4.05;;;3.03;;
56373;SDS011;58212;47.034;7.376;2022-09-13T10:41:07;4.25;;;2.95;;
56373;SDS011;58212;47.034;7.376;2022-09-13T10:43:36;4.95;;;2.58;;
56373;SDS011;58212;47.034;7.376;2022-09-13T10:46:04;4.57;;;3.83;;
56373;SDS011;58212;47.034;7.376;2022-09-13T10:48:43;3.45;;;2.47;;
56373;SDS011;58212;47.034;7.376;2022-09-13T10:51:20;5.80;;;5.20;;
56373;SDS011;58212;47.034;7.376;2022-09-13T10:54:16;4.63;;;3.15;;
56373;SDS011;58212;47.034;7.376;2022-09-13T10:56:45;3.45;;;2.88;;
56373;SDS011;58212;47.034;7.376;2022-09-13T10:59:14;6.25;;;3.40;;
56373;SDS011;58212;47.034;7.376;2022-09-13T11:01:45;5.22;;;3.17;;
56373;SDS011;58212;47.034;7.376;2022-09-13T11:04:36;5.78;;;2.88;;
56373;SDS011;58212;47.034;7.376;2022-09-13T11:07:35;5.38;;;4.03;;
56373;SDS011;58212;47.034;7.376;2022-09-13T11:10:29;5.47;;;3.00;;
56373;SDS011;58212;47.034;7.376;2022-09-13T11:13:04;3.88;;;3.10;;
56373;SDS011;58212;47.034;7.376;2022-09-13T11:15:44;5.60;;;2.60;;
56373;SDS011;58212;47.034;7.376;2022-09-13T11:21:20;3.97;;;2.58;;
56373;SDS011;58212;47.034;7.376;2022-09-13T11:26:54;5.38;;;2.60;;
56373;SDS011;58212;47.034;7.376;2022-09-13T11:29:32;3.55;;;2.25;;
56373;SDS011;58212;47.034;7.376;2022-09-13T11:32:17;2.40;;;2.05;;
56373;SDS011;58212;47.034;7.376;2022-09-13T11:34:56;2.70;;;2.03;;
56373;SDS011;58212;47.034;7.376;2022-09-13T11:37:44;4.90;;;1.95;;
56373;SDS011;58212;47.034;7.376;2022-09-13T11:40:23;4.05;;;2.38;;
56373;SDS011;58212;47.034;7.376;2022-09-13T11:43:05;3.15;;;2.10;;
56373;SDS011;58212;47.034;7.376;2022-09-13T11:45:42;4.50;;;1.70;;
56373;SDS011;58212;47.034;7.376;2022-09-13T11:48:21;4.13;;;2.40;;
56373;SDS011;58212;47.034;7.376;2022-09-13T11:51:11;2.90;;;2.28;;
56373;SDS011;58212;47.034;7.376;2022-09-13T11:53:53;2.10;;;1.77;;
56373;SDS011;58212;47.034;7.376;2022-09-13T11:56:28;4.97;;;2.63;;
56373;SDS011;58212;47.034;7.376;2022-09-13T11:59:04;3.75;;;2.20;;
56373;SDS011;58212;47.034;7.376;2022-09-13T12:01:43;6.95;;;2.40;;
56373;SDS011;58212;47.034;7.376;2022-09-13T12:04:15;2.30;;;2.10;;
56373;SDS011;58212;47.034;7.376;2022-09-13T12:06:47;2.60;;;2.00;;
56373;SDS011;58212;47.034;7.376;2022-09-13T12:09:24;2.13;;;1.90;;
56373;SDS011;58212;47.034;7.376;2022-09-13T12:11:57;2.10;;;1.77;;
56373;SDS011;58212;47.034;7.376;2022-09-13T12:14:31;4.05;;;2.40;;
56373;SDS011;58212;47.034;7.376;2022-09-13T12:17:10;2.10;;;1.70;;
56373;SDS011;58212;47.034;7.376;2022-09-13T12:19:47;3.08;;;1.33;;
56373;SDS011;58212;47.034;7.376;2022-09-13T12:22:19;2.25;;;1.60;;
56373;SDS011;58212;47.034;7.376;2022-09-13T12:24:49;2.65;;;1.60;;
56373;SDS011;58212;47.034;7.376;2022-09-13T12:27:21;2.72;;;1.40;;
56373;SDS011;58212;47.034;7.376;2022-09-13T12:29:54;3.88;;;2.00;;
56373;SDS011;58212;47.034;7.376;2022-09-13T12:32:26;3.30;;;1.50;;
56373;SDS011;58212;47.034;7.376;2022-09-13T12:34:53;2.00;;;1.30;;
56373;SDS011;58212;47.034;7.376;2022-09-13T12:37:30;1.75;;;1.35;;
56373;SDS011;58212;47.034;7.376;2022-09-13T12:40:33;1.52;;;1.35;;
56373;SDS011;58212;47.034;7.376;2022-09-13T12:43:18;2.13;;;1.52;;
56373;SDS011;58212;47.034;7.376;2022-09-13T12:46:01;5.53;;;2.85;;
56373;SDS011;58212;47.034;7.376;2022-09-13T12:48:48;4.88;;;1.63;;
56373;SDS011;58212;47.034;7.376;2022-09-13T12:51:49;2.50;;;1.35;;
56373;SDS011;58212;47.034;7.376;2022-09-13T12:54:41;3.90;;;1.40;;
56373;SDS011;58212;47.034;7.376;2022-09-13T12:57:30;3.20;;;1.20;;
56373;SDS011;58212;47.034;7.376;2022-09-13T13:00:11;2.55;;;1.00;;
56373;SDS011;58212;47.034;7.376;2022-09-13T13:02:50;2.97;;;1.42;;
56373;SDS011;58212;47.034;7.376;2022-09-13T13:05:25;4.13;;;2.30;;
56373;SDS011;58212;47.034;7.376;2022-09-13T13:07:56;2.35;;;1.27;;
56373;SDS011;58212;47.034;7.376;2022-09-13T13:10:27;2.65;;;1.60;;
56373;SDS011;58212;47.034;7.376;2022-09-13T13:13:08;3.47;;;1.08;;
56373;SDS011;58212;47.034;7.376;2022-09-13T13:15:54;2.60;;;1.20;;
56373;SDS011;58212;47.034;7.376;2022-09-13T13:18:28;10.77;;;2.75;;
56373;SDS011;58212;47.034;7.376;2022-09-13T13:21:20;2.30;;;1.10;;
56373;SDS011;58212;47.034;7.376;2022-09-13T13:26:57;1.48;;;0.80;;
56373;SDS011;58212;47.034;7.376;2022-09-13T13:29:24;1.80;;;0.80;;
56373;SDS011;58212;47.034;7.376;2022-09-13T13:32:03;2.78;;;1.02;;
56373;SDS011;58212;47.034;7.376;2022-09-13T13:34:41;1.80;;;0.88;;
56373;SDS011;58212;47.034;7.376;2022-09-13T13:40:09;3.17;;;1.23;;
56373;SDS011;58212;47.034;7.376;2022-09-13T13:42:47;3.08;;;1.33;;
56373;SDS011;58212;47.034;7.376;2022-09-13T13:45:19;3.65;;;0.90;;
56373;SDS011;58212;47.034;7.376;2022-09-13T13:53:40;1.27;;;0.90;;
56373;SDS011;58212;47.034;7.376;2022-09-13T13:56:18;4.95;;;1.63;;
56373;SDS011;58212;47.034;7.376;2022-09-13T13:59:06;1.73;;;0.90;;
56373;SDS011;58212;47.034;7.376;2022-09-13T14:01:42;2.45;;;1.20;;
56373;SDS011;58212;47.034;7.376;2022-09-13T14:10:37;1.20;;;1.08;;
56373;SDS011;58212;47.034;7.376;2022-09-13T14:13:23;2.15;;;1.27;;
56373;SDS011;58212;47.034;7.376;2022-09-13T14:16:02;6.05;;;2.08;;
56373;SDS011;58212;47.034;7.376;2022-09-13T14:18:43;3.72;;;1.60;;
56373;SDS011;58212;47.034;7.376;2022-09-13T14:21:17;3.15;;;1.20;;
56373;SDS011;58212;47.034;7.376;2022-09-13T14:23:46;2.40;;;1.20;;
56373;SDS011;58212;47.034;7.376;2022-09-13T14:26:14;3.30;;;1.40;;
56373;SDS011;58212;47.034;7.376;2022-09-13T14:28:41;2.78;;;1.52;;
56373;SDS011;58212;47.034;7.376;2022-09-13T14:31:13;2.95;;;1.40;;
56373;SDS011;58212;47.034;7.376;2022-09-13T14:33:44;1.95;;;1.20;;
56373;SDS011;58212;47.034;7.376;2022-09-13T14:36:15;2.63;;;1.52;;
56373;SDS011;58212;47.034;7.376;2022-09-13T14:38:48;2.33;;;1.55;;
56373;SDS011;58212;47.034;7.376;2022-09-13T14:41:19;1.45;;;1.30;;
56373;SDS011;58212;47.034;7.376;2022-09-13T14:43:48;4.03;;;1.70;;
56373;SDS011;58212;47.034;7.376;2022-09-13T14:46:16;3.75;;;1.58;;
56373;SDS011;58212;47.034;7.376;2022-09-13T14:48:47;2.53;;;1.45;;
56373;SDS011;58212;47.034;7.376;2022-09-13T14:51:18;2.63;;;1.67;;
56373;SDS011;58212;47.034;7.376;2022-09-13T14:53:49;2.53;;;2.13;;
56373;SDS011;58212;47.034;7.376;2022-09-13T14:56:26;4.82;;;1.77;;
56373;SDS011;58212;47.034;7.376;2022-09-13T14:58:58;2.58;;;2.20;;
56373;SDS011;58212;47.034;7.376;2022-09-13T15:01:28;2.85;;;1.77;;
56373;SDS011;58212;47.034;7.376;2022-09-13T15:03:57;6.85;;;2.40;;
56373;SDS011;58212;47.034;7.376;2022-09-13T15:06:27;6.43;;;2.38;;
56373;SDS011;58212;47.034;7.376;2022-09-13T15:08:59;4.43;;;2.50;;
56373;SDS011;58212;47.034;7.376;2022-09-13T15:11:40;4.03;;;2.30;;
56373;SDS011;58212;47.034;7.376;2022-09-13T15:14:22;3.30;;;2.10;;
56373;SDS011;58212;47.034;7.376;2022-09-13T15:16:52;3.72;;;2.25;;
56373;SDS011;58212;47.034;7.376;2022-09-13T15:19:32;5.45;;;2.42;;
56373;SDS011;58212;47.034;7.376;2022-09-13T15:22:10;3.67;;;2.08;;
56373;SDS011;58212;47.034;7.376;2022-09-13T15:24:46;3.63;;;1.95;;
56373;SDS011;58212;47.034;7.376;2022-09-13T15:27:21;4.70;;;1.83;;
56373;SDS011;58212;47.034;7.376;2022-09-13T15:29:52;2.42;;;2.10;;
56373;SDS011;58212;47.034;7.376;2022-09-13T15:32:22;2.70;;;2.30;;
56373;SDS011;58212;47.034;7.376;2022-09-13T15:34:55;5.07;;;2.00;;
56373;SDS011;58212;47.034;7.376;2022-09-13T15:37:33;4.88;;;1.70;;
56373;SDS011;58212;47.034;7.376;2022-09-13T15:40:09;5.53;;;1.88;;
56373;SDS011;58212;47.034;7.376;2022-09-13T15:42:45;4.80;;;2.13;;
56373;SDS011;58212;47.034;7.376;2022-09-13T15:45:13;6.45;;;2.30;;
56373;SDS011;58212;47.034;7.376;2022-09-13T15:47:43;5.05;;;1.70;;
56373;SDS011;58212;47.034;7.376;2022-09-13T15:50:22;2.75;;;1.40;;
56373;SDS011;58212;47.034;7.376;2022-09-13T15:52:51;3.63;;;1.60;;
56373;SDS011;58212;47.034;7.376;2022-09-13T15:55:19;3.83;;;1.65;;
56373;SDS011;58212;47.034;7.376;2022-09-13T15:57:48;2.63;;;1.40;;
56373;SDS011;58212;47.034;7.376;2022-09-13T16:00:19;5.28;;;1.55;;
56373;SDS011;58212;47.034;7.376;2022-09-13T16:02:48;4.82;;;1.52;;
56373;SDS011;58212;47.034;7.376;2022-09-13T16:05:15;3.97;;;1.88;;